createdAt,value
2019-01-13T00:00:47.246Z,78.07
2019-01-13T00:03:14.398Z,78.06
2019-01-13T00:05:41.493Z,78.09
2019-01-13T00:08:08.616Z,78.13
2019-01-13T00:10:35.703Z,78.18
2019-01-13T00:13:02.813Z,78.19
2019-01-13T00:15:29.911Z,78.18
2019-01-13T00:17:57.041Z,78.24
2019-01-13T00:20:24.125Z,78.20
2019-01-13T00:22:51.221Z,78.14
2019-01-13T00:25:18.384Z,78.14
2019-01-13T00:27:45.481Z,78.20
2019-01-13T00:30:19.166Z,78.24
2019-01-13T00:32:42.137Z,78.21
2019-01-13T00:35:09.225Z,78.31
2019-01-13T00:37:36.284Z,78.27
2019-01-13T00:40:07.252Z,78.36
2019-01-13T00:42:34.377Z,78.33
2019-01-13T00:45:01.481Z,78.40
2019-01-13T00:47:28.543Z,78.40
2019-01-13T00:49:55.629Z,78.37
2019-01-13T00:52:22.779Z,78.37
2019-01-13T00:54:49.858Z,78.33
2019-01-13T00:57:16.971Z,78.36
2019-01-13T00:59:44.040Z,78.33
2019-01-13T01:02:11.113Z,78.32
2019-01-13T01:04:38.243Z,78.31
2019-01-13T01:07:05.522Z,78.25
2019-01-13T01:09:32.636Z,78.21
2019-01-13T01:11:59.759Z,78.25
2019-01-13T01:14:26.841Z,78.21
2019-01-13T01:16:53.901Z,78.16
2019-01-13T01:19:21.004Z,78.14
2019-01-13T01:21:48.080Z,78.21
2019-01-13T01:24:15.198Z,78.19
2019-01-13T01:26:42.324Z,78.21
2019-01-13T01:29:09.423Z,78.19
2019-01-13T01:31:36.486Z,78.25
2019-01-13T01:34:03.683Z,78.30
2019-01-13T01:36:30.841Z,78.34
2019-01-13T01:38:57.906Z,78.39
2019-01-13T01:41:25.000Z,78.45
2019-01-13T01:43:52.087Z,78.47
2019-01-13T01:46:19.200Z,78.48
2019-01-13T01:48:46.271Z,78.48
2019-01-13T01:51:13.358Z,78.51
2019-01-13T01:53:40.434Z,78.53
2019-01-13T01:56:07.517Z,78.57
2019-01-13T01:58:34.595Z,78.58
2019-01-13T02:01:01.682Z,78.59
2019-01-13T02:03:28.763Z,78.54
2019-01-13T02:05:55.833Z,78.50
2019-01-13T02:08:22.978Z,78.41
2019-01-13T02:10:50.024Z,78.37
2019-01-13T02:13:17.115Z,78.44
2019-01-13T02:15:44.179Z,78.43
2019-01-13T02:18:11.241Z,78.38
2019-01-13T02:20:38.299Z,78.33
2019-01-13T02:23:05.410Z,78.28
2019-01-13T02:25:32.469Z,78.20
2019-01-13T02:27:59.509Z,78.12
2019-01-13T02:30:26.940Z,78.16
2019-01-13T02:32:54.046Z,78.17
2019-01-13T02:35:21.133Z,78.22
2019-01-13T02:37:48.189Z,78.19
2019-01-13T02:40:17.173Z,78.17
2019-01-13T02:42:44.333Z,78.21
2019-01-13T02:45:13.957Z,78.29
2019-01-13T02:47:41.023Z,78.32
2019-01-13T02:50:08.416Z,78.29
2019-01-13T02:52:35.487Z,78.27
2019-01-13T02:55:02.663Z,78.25
2019-01-13T02:57:29.733Z,78.25
2019-01-13T02:59:56.799Z,78.27
2019-01-13T03:02:23.863Z,78.30
2019-01-13T03:04:50.939Z,78.33
2019-01-13T03:07:18.006Z,78.33
2019-01-13T03:09:45.071Z,78.39
2019-01-13T03:12:12.105Z,78.44
2019-01-13T03:14:39.164Z,78.55
2019-01-13T03:17:06.215Z,78.64
2019-01-13T03:19:33.288Z,78.65
2019-01-13T03:22:00.331Z,78.56
2019-01-13T03:24:27.413Z,78.50
2019-01-13T03:26:54.480Z,78.49
2019-01-13T03:29:21.524Z,78.58
2019-01-13T03:31:48.568Z,78.63
2019-01-13T03:34:15.633Z,78.71
2019-01-13T03:36:42.694Z,78.78
2019-01-13T03:39:09.764Z,78.87
2019-01-13T03:41:36.839Z,78.92
2019-01-13T03:44:03.994Z,78.98
2019-01-13T03:46:31.070Z,78.97
2019-01-13T03:48:58.124Z,79.01
2019-01-13T03:51:25.203Z,79.00
2019-01-13T03:53:52.300Z,78.97
2019-01-13T03:56:19.339Z,78.90
2019-01-13T03:58:46.354Z,78.86
2019-01-13T04:01:18.523Z,78.80
2019-01-13T04:03:42.383Z,78.79
2019-01-13T04:06:09.426Z,78.81
2019-01-13T04:08:36.483Z,78.79
2019-01-13T04:11:03.566Z,78.79
2019-01-13T04:13:30.665Z,78.86
2019-01-13T04:16:02.573Z,78.87
2019-01-13T04:18:29.635Z,78.86
2019-01-13T04:20:56.695Z,78.81
2019-01-13T04:23:23.719Z,78.80
2019-01-13T04:25:50.822Z,78.80
2019-01-13T04:28:17.890Z,78.78
2019-01-13T04:30:44.948Z,78.74
2019-01-13T04:33:12.021Z,78.69
2019-01-13T04:35:39.090Z,78.69
2019-01-13T04:38:06.140Z,78.69
2019-01-13T04:40:33.195Z,78.70
2019-01-13T04:43:00.246Z,78.65
2019-01-13T04:45:27.305Z,78.70
2019-01-13T04:47:54.373Z,78.73
2019-01-13T04:50:21.439Z,78.72
2019-01-13T04:52:48.493Z,78.65
2019-01-13T04:55:15.559Z,78.58
2019-01-13T04:57:42.596Z,78.58
2019-01-13T05:00:12.665Z,78.63
2019-01-13T05:02:39.725Z,78.67
2019-01-13T05:05:07.665Z,78.69
2019-01-13T05:07:34.735Z,78.73
2019-01-13T05:10:01.938Z,78.72
2019-01-13T05:12:28.998Z,78.71
2019-01-13T05:14:56.032Z,78.72
2019-01-13T05:17:23.101Z,78.75
2019-01-13T05:19:50.145Z,78.82
2019-01-13T05:22:17.215Z,78.83
2019-01-13T05:24:44.276Z,78.80
2019-01-13T05:27:11.307Z,78.80
2019-01-13T05:29:38.344Z,78.82
2019-01-13T05:32:05.394Z,78.78
2019-01-13T05:34:32.441Z,78.92
2019-01-13T05:36:59.498Z,79.52
2019-01-13T05:39:26.560Z,78.89
2019-01-13T05:41:53.616Z,78.35
2019-01-13T05:44:20.672Z,78.40
2019-01-13T05:46:47.754Z,78.17
2019-01-13T05:49:14.828Z,78.15
2019-01-13T05:51:41.891Z,78.15
2019-01-13T05:54:08.959Z,78.25
2019-01-13T05:56:36.014Z,78.32
2019-01-13T05:59:03.066Z,78.39
2019-01-13T06:01:30.135Z,78.48
2019-01-13T06:03:57.191Z,78.47
2019-01-13T06:06:24.267Z,78.55
2019-01-13T06:08:51.316Z,78.59
2019-01-13T06:11:18.381Z,78.62
2019-01-13T06:13:45.406Z,78.68
2019-01-13T06:16:12.444Z,78.75
2019-01-13T06:18:39.459Z,78.84
2019-01-13T06:21:06.496Z,79.05
2019-01-13T06:23:33.537Z,78.98
2019-01-13T06:26:00.608Z,78.76
2019-01-13T06:28:27.664Z,78.84
2019-01-13T06:30:54.706Z,78.74
2019-01-13T06:33:21.768Z,78.17
2019-01-13T06:35:48.807Z,78.17
2019-01-13T06:38:15.859Z,78.00
2019-01-13T06:40:42.884Z,77.71
2019-01-13T06:43:09.904Z,77.49
2019-01-13T06:45:36.940Z,77.38
2019-01-13T06:48:03.974Z,77.00
2019-01-13T06:50:31.012Z,77.01
2019-01-13T06:52:58.055Z,77.11
2019-01-13T06:55:25.102Z,77.36
2019-01-13T06:57:52.145Z,77.56
2019-01-13T07:00:21.076Z,77.64
2019-01-13T07:02:48.121Z,77.73
2019-01-13T07:05:15.156Z,77.86
2019-01-13T07:07:42.177Z,78.02
2019-01-13T07:10:09.398Z,78.17
2019-01-13T07:12:36.439Z,79.00
2019-01-13T07:15:05.591Z,79.27
2019-01-13T07:17:32.611Z,78.90
2019-01-13T07:19:59.673Z,78.35
2019-01-13T07:22:26.696Z,78.10
2019-01-13T07:24:53.731Z,78.09
2019-01-13T07:27:20.769Z,78.00
2019-01-13T07:29:47.800Z,77.63
2019-01-13T07:32:14.845Z,77.85
2019-01-13T07:34:41.869Z,77.79
2019-01-13T07:37:08.935Z,77.54
2019-01-13T07:39:35.987Z,77.17
2019-01-13T07:42:03.049Z,77.00
2019-01-13T07:44:30.073Z,77.03
2019-01-13T07:46:57.145Z,76.59
2019-01-13T07:49:24.192Z,76.38
2019-01-13T07:51:51.249Z,76.50
2019-01-13T07:54:18.279Z,76.64
2019-01-13T07:56:45.357Z,76.83
2019-01-13T07:59:12.404Z,77.43
2019-01-13T08:01:39.469Z,77.80
2019-01-13T08:04:06.513Z,77.84
2019-01-13T08:06:33.568Z,76.66
2019-01-13T08:09:00.660Z,76.04
2019-01-13T08:11:27.711Z,75.99
2019-01-13T08:13:54.776Z,76.23
2019-01-13T08:16:21.832Z,76.00
2019-01-13T08:18:48.879Z,75.52
2019-01-13T08:21:15.954Z,76.08
2019-01-13T08:23:43.000Z,75.30
2019-01-13T08:26:10.063Z,75.40
2019-01-13T08:28:37.105Z,75.15
2019-01-13T08:31:04.164Z,75.23
2019-01-13T08:33:31.196Z,75.28
2019-01-13T08:35:58.274Z,75.34
2019-01-13T08:38:25.372Z,75.38
2019-01-13T08:40:52.444Z,75.60
2019-01-13T08:43:19.495Z,75.57
2019-01-13T08:45:50.243Z,75.58
2019-01-13T08:48:15.512Z,75.60
2019-01-13T08:50:42.576Z,75.56
2019-01-13T08:53:09.672Z,75.57
2019-01-13T08:55:36.736Z,75.59
2019-01-13T08:58:03.786Z,75.66
2019-01-13T09:00:34.362Z,75.69
2019-01-13T09:03:03.012Z,75.72
2019-01-13T09:05:30.064Z,75.69
2019-01-13T09:07:57.121Z,75.70
2019-01-13T09:10:24.171Z,75.63
2019-01-13T09:12:56.609Z,75.59
2019-01-13T09:15:21.346Z,75.61
2019-01-13T09:17:48.617Z,75.52
2019-01-13T09:20:17.961Z,75.50
2019-01-13T09:22:45.234Z,75.54
2019-01-13T09:25:13.118Z,75.54
2019-01-13T09:27:40.211Z,75.54
2019-01-13T09:30:11.209Z,75.45
2019-01-13T09:32:39.670Z,75.34
2019-01-13T09:35:06.857Z,75.28
2019-01-13T09:37:33.918Z,75.26
2019-01-13T09:40:00.957Z,75.29
2019-01-13T09:42:28.039Z,75.33
2019-01-13T09:44:55.093Z,75.30
2019-01-13T09:47:22.177Z,75.29
2019-01-13T09:49:50.048Z,75.35
2019-01-13T09:52:17.493Z,75.31
2019-01-13T09:54:44.579Z,75.39
2019-01-13T09:57:11.686Z,75.47
2019-01-13T09:59:38.763Z,75.46
2019-01-13T10:02:05.859Z,75.36
2019-01-13T10:04:32.939Z,75.29
2019-01-13T10:07:00.020Z,75.16
2019-01-13T10:09:27.089Z,75.12
2019-01-13T10:11:54.144Z,75.10
2019-01-13T10:14:21.252Z,75.05
2019-01-13T10:16:48.435Z,74.98
2019-01-13T10:19:15.534Z,74.95
2019-01-13T10:21:42.643Z,74.79
2019-01-13T10:24:09.749Z,74.68
2019-01-13T10:26:36.874Z,74.51
2019-01-13T10:29:04.011Z,74.37
2019-01-13T10:31:31.115Z,74.28
2019-01-13T10:33:58.208Z,74.33
2019-01-13T10:36:25.323Z,74.32
2019-01-13T10:38:52.412Z,74.34
2019-01-13T10:41:19.506Z,74.25
2019-01-13T10:43:46.600Z,74.16
2019-01-13T10:46:13.767Z,74.08
2019-01-13T10:48:40.865Z,73.97
2019-01-13T10:51:07.985Z,73.91
2019-01-13T10:53:35.061Z,73.82
2019-01-13T10:56:02.256Z,73.82
2019-01-13T10:58:29.364Z,73.79
2019-01-13T11:00:56.464Z,73.78
2019-01-13T11:03:23.871Z,73.58
2019-01-13T11:05:51.103Z,74.02
2019-01-13T11:08:18.218Z,73.87
2019-01-13T11:10:45.358Z,73.57
2019-01-13T11:13:12.465Z,73.32
2019-01-13T11:15:39.581Z,73.02
2019-01-13T11:18:06.796Z,73.12
2019-01-13T11:20:38.306Z,72.98
2019-01-13T11:23:05.600Z,72.88
2019-01-13T11:25:32.714Z,72.74
2019-01-13T11:27:59.852Z,72.88
2019-01-13T11:30:27.078Z,73.02
2019-01-13T11:32:54.182Z,73.19
2019-01-13T11:35:21.310Z,73.45
2019-01-13T11:37:48.729Z,73.68
2019-01-13T11:40:18.094Z,73.86
2019-01-13T11:42:45.667Z,74.10
2019-01-13T11:45:14.941Z,74.12
2019-01-13T11:47:42.269Z,74.39
2019-01-13T11:50:13.049Z,74.51
2019-01-13T11:52:40.995Z,74.68
2019-01-13T11:55:09.173Z,74.82
2019-01-13T11:57:36.335Z,75.01
2019-01-13T12:00:06.648Z,75.32
2019-01-13T12:02:34.580Z,75.41
2019-01-13T12:05:01.940Z,75.52
2019-01-13T12:07:29.073Z,75.59
2019-01-13T12:09:56.201Z,75.88
2019-01-13T12:12:23.298Z,75.99
2019-01-13T12:14:50.437Z,76.19
2019-01-13T12:17:17.630Z,76.21
2019-01-13T12:19:44.831Z,76.31
2019-01-13T12:22:11.955Z,76.33
2019-01-13T12:24:39.063Z,76.32
2019-01-13T12:27:06.179Z,76.40
2019-01-13T12:29:33.312Z,76.41
2019-01-13T12:32:01.963Z,76.38
2019-01-13T12:34:29.367Z,76.38
2019-01-13T12:36:56.871Z,76.39
2019-01-13T12:39:25.007Z,76.41
2019-01-13T12:41:52.172Z,76.52
2019-01-13T12:44:20.332Z,76.55
2019-01-13T12:46:47.489Z,76.58
2019-01-13T12:49:14.925Z,76.64
2019-01-13T12:51:42.115Z,76.67
2019-01-13T12:54:10.735Z,76.70
2019-01-13T12:56:37.898Z,76.67
2019-01-13T12:59:04.995Z,76.66
2019-01-13T13:01:32.137Z,76.68
2019-01-13T13:03:59.347Z,76.78
2019-01-13T13:06:26.549Z,76.77
2019-01-13T13:08:54.075Z,76.80
2019-01-13T13:11:21.252Z,76.85
2019-01-13T13:13:48.398Z,76.93
2019-01-13T13:16:15.595Z,77.01
2019-01-13T13:18:42.767Z,76.98
2019-01-13T13:21:11.487Z,76.98
2019-01-13T13:23:38.630Z,76.97
2019-01-13T13:26:05.768Z,77.04
2019-01-13T13:28:33.876Z,77.14
2019-01-13T13:31:01.007Z,77.22
2019-01-13T13:33:28.204Z,77.26
2019-01-13T13:35:55.413Z,77.33
2019-01-13T13:38:22.594Z,77.38
2019-01-13T13:40:50.868Z,77.37
2019-01-13T13:43:18.016Z,77.42
2019-01-13T13:45:45.157Z,77.49
2019-01-13T13:48:13.936Z,77.39
2019-01-13T13:50:41.375Z,77.37
2019-01-13T13:53:10.836Z,77.47
2019-01-13T13:55:37.980Z,77.46
2019-01-13T13:58:05.228Z,77.48
2019-01-13T14:00:36.443Z,77.46
2019-01-13T14:03:04.079Z,77.44
2019-01-13T14:05:31.263Z,77.49
2019-01-13T14:07:58.443Z,77.48
2019-01-13T14:10:36.559Z,77.49
2019-01-13T14:13:04.081Z,77.50
2019-01-13T14:15:31.247Z,77.57
2019-01-13T14:17:58.451Z,77.47
2019-01-13T14:20:26.914Z,77.43
2019-01-13T14:22:54.063Z,77.46
2019-01-13T14:25:23.309Z,77.54
2019-01-13T14:27:50.601Z,77.62
2019-01-13T14:30:20.448Z,77.59
2019-01-13T14:32:47.607Z,77.60
2019-01-13T14:35:14.771Z,77.60
2019-01-13T14:37:42.090Z,77.66
2019-01-13T14:40:13.248Z,77.58
2019-01-13T14:42:40.847Z,77.45
2019-01-13T14:45:12.550Z,77.39
2019-01-13T14:47:40.089Z,77.40
2019-01-13T14:50:10.607Z,77.41
2019-01-13T14:52:38.036Z,77.40
2019-01-13T14:55:06.025Z,77.45
2019-01-13T14:57:33.601Z,77.49
2019-01-13T15:00:01.025Z,77.47
2019-01-13T15:02:28.522Z,77.54
2019-01-13T15:04:55.900Z,77.59
2019-01-13T15:07:23.157Z,77.69
2019-01-13T15:09:52.829Z,77.71
2019-01-13T15:12:20.303Z,77.70
2019-01-13T15:14:47.955Z,77.81
2019-01-13T15:17:21.476Z,77.90
2019-01-13T15:19:49.521Z,78.03
2019-01-13T15:22:17.386Z,78.20
2019-01-13T15:24:46.701Z,78.38
2019-01-13T15:27:14.660Z,78.54
2019-01-13T15:29:42.947Z,78.44
2019-01-13T15:32:11.700Z,78.38
2019-01-13T15:34:40.240Z,78.32
2019-01-13T15:37:08.175Z,78.31
2019-01-13T15:39:35.757Z,78.29
2019-01-13T15:42:03.899Z,78.34
2019-01-13T15:44:31.585Z,78.35
2019-01-13T15:46:59.433Z,78.36
2019-01-13T15:49:30.083Z,78.24
2019-01-13T15:51:57.638Z,78.15
2019-01-13T15:54:24.962Z,78.17
2019-01-13T15:56:52.188Z,78.24
2019-01-13T15:59:19.700Z,78.28
2019-01-13T16:01:46.965Z,78.34
2019-01-13T16:04:15.587Z,78.32
2019-01-13T16:06:43.079Z,78.38
2019-01-13T16:09:10.819Z,78.43
2019-01-13T16:11:40.175Z,78.31
2019-01-13T16:14:07.693Z,78.37
2019-01-13T16:16:34.983Z,78.44
2019-01-13T16:19:02.387Z,78.47
2019-01-13T16:21:30.261Z,78.53
2019-01-13T16:24:00.119Z,78.54
2019-01-13T16:26:27.321Z,78.52
2019-01-13T16:28:55.049Z,78.52
2019-01-13T16:31:23.904Z,78.39
2019-01-13T16:33:52.210Z,78.39
2019-01-13T16:36:20.315Z,78.37
2019-01-13T16:38:49.747Z,78.35
2019-01-13T16:41:18.022Z,78.36
2019-01-13T16:43:45.436Z,78.57
2019-01-13T16:46:12.875Z,78.71
2019-01-13T16:48:41.091Z,78.75
2019-01-13T16:51:09.361Z,78.93
2019-01-13T16:53:37.525Z,79.11
2019-01-13T16:56:07.501Z,79.08
2019-01-13T16:58:35.725Z,78.83
2019-01-13T17:01:03.663Z,78.79
2019-01-13T17:03:31.405Z,78.33
2019-01-13T17:06:01.409Z,78.01
2019-01-13T17:08:29.685Z,77.66
2019-01-13T17:10:59.290Z,77.46
2019-01-13T17:13:31.080Z,77.24
2019-01-13T17:15:59.520Z,77.09
2019-01-13T17:18:27.595Z,77.18
2019-01-13T17:20:55.474Z,77.52
2019-01-13T17:23:23.652Z,77.73
2019-01-13T17:25:51.769Z,77.86
2019-01-13T17:28:22.397Z,77.94
2019-01-13T17:30:53.677Z,77.83
2019-01-13T17:33:25.332Z,77.82
2019-01-13T17:35:53.544Z,77.94
2019-01-13T17:38:24.111Z,78.15
2019-01-13T17:40:53.533Z,78.19
2019-01-13T17:43:21.859Z,78.18
2019-01-13T17:45:49.886Z,78.32
2019-01-13T17:48:19.633Z,78.35
2019-01-13T17:50:48.318Z,78.38
2019-01-13T17:53:16.222Z,78.29
2019-01-13T17:55:44.315Z,78.21
2019-01-13T17:58:12.805Z,78.25
2019-01-13T18:00:53.555Z,78.29
2019-01-13T18:03:43.407Z,78.29
2019-01-13T18:06:13.230Z,78.41
2019-01-13T18:08:42.068Z,78.42
2019-01-13T18:11:11.643Z,78.44
2019-01-13T18:13:40.539Z,78.49
2019-01-13T18:16:10.259Z,78.60
2019-01-13T18:18:39.360Z,78.51
2019-01-13T18:21:09.432Z,78.50
2019-01-13T18:23:40.517Z,78.35
2019-01-13T18:26:09.018Z,78.19
2019-01-13T18:28:37.886Z,78.29
2019-01-13T18:31:07.702Z,78.31
2019-01-13T18:33:36.872Z,78.27
2019-01-13T18:36:07.821Z,78.40
2019-01-13T18:38:37.639Z,78.48
2019-01-13T18:41:06.144Z,78.46
2019-01-13T18:43:39.643Z,78.24
2019-01-13T18:46:09.074Z,78.13
2019-01-13T18:48:37.481Z,78.42
2019-01-13T18:51:06.680Z,78.50
2019-01-13T18:53:35.731Z,78.64
2019-01-13T18:56:05.520Z,78.61
2019-01-13T18:58:34.099Z,78.52
2019-01-13T19:01:05.096Z,78.54
2019-01-13T19:03:34.707Z,78.66
2019-01-13T19:06:03.883Z,78.66
2019-01-13T19:08:32.615Z,78.66
2019-01-13T19:11:23.902Z,78.51
2019-01-13T19:14:12.769Z,78.35
2019-01-13T19:16:49.801Z,78.40
2019-01-13T19:19:17.835Z,78.44
2019-01-13T19:21:46.913Z,78.36
2019-01-13T19:24:15.357Z,78.36
2019-01-13T19:26:44.091Z,78.21
2019-01-13T19:29:14.286Z,78.36
2019-01-13T19:31:43.169Z,78.24
2019-01-13T19:34:11.384Z,78.13
2019-01-13T19:36:43.305Z,77.97
2019-01-13T19:39:12.305Z,77.99
2019-01-13T19:41:40.554Z,78.16
2019-01-13T19:44:08.497Z,78.11
2019-01-13T19:46:38.584Z,78.24
2019-01-13T19:49:06.911Z,78.06
2019-01-13T19:51:35.506Z,77.98
2019-01-13T19:54:04.058Z,77.90
2019-01-13T19:56:33.848Z,77.74
2019-01-13T19:59:02.859Z,77.43
2019-01-13T20:01:33.142Z,77.18
2019-01-13T20:04:02.744Z,77.29
2019-01-13T20:06:31.997Z,76.96
2019-01-13T20:09:01.046Z,76.78
2019-01-13T20:11:31.072Z,76.87
2019-01-13T20:14:04.470Z,76.85
2019-01-13T20:16:33.829Z,76.66
2019-01-13T20:19:05.236Z,76.36
2019-01-13T20:21:33.419Z,75.99
2019-01-13T20:24:01.586Z,75.76
2019-01-13T20:26:29.646Z,75.84
2019-01-13T20:28:58.924Z,75.87
2019-01-13T20:31:27.438Z,75.75
2019-01-13T20:33:56.175Z,75.69
2019-01-13T20:36:26.869Z,75.67
2019-01-13T20:38:56.203Z,75.75
2019-01-13T20:41:23.908Z,75.90
2019-01-13T20:43:54.549Z,75.87
2019-01-13T20:46:25.651Z,76.20
2019-01-13T20:48:54.759Z,76.19
2019-01-13T20:51:25.901Z,76.31
2019-01-13T20:53:53.855Z,76.28
2019-01-13T20:56:22.762Z,76.55
2019-01-13T20:58:50.712Z,76.56
2019-01-13T21:01:18.511Z,76.66
2019-01-13T21:03:46.695Z,77.00
2019-01-13T21:06:14.177Z,77.12
2019-01-13T21:08:42.393Z,77.25
2019-01-13T21:11:09.753Z,77.33
2019-01-13T21:13:37.408Z,77.28
2019-01-13T21:16:04.994Z,77.00
2019-01-13T21:18:32.484Z,76.85
2019-01-13T21:20:59.963Z,76.74
2019-01-13T21:23:27.192Z,77.35
2019-01-13T21:25:54.412Z,77.21
2019-01-13T21:28:22.721Z,77.51
2019-01-13T21:30:51.782Z,77.41
2019-01-13T21:33:18.974Z,77.34
2019-01-13T21:35:46.883Z,77.67
2019-01-13T21:38:15.413Z,77.59
2019-01-13T21:40:42.579Z,77.69
2019-01-13T21:43:11.091Z,77.94
2019-01-13T21:45:38.235Z,77.91
2019-01-13T21:48:05.372Z,78.00
2019-01-13T21:50:32.800Z,78.12
2019-01-13T21:52:59.924Z,78.19
2019-01-13T21:55:27.194Z,78.25
2019-01-13T21:57:54.312Z,78.48
2019-01-13T22:00:23.728Z,78.53
2019-01-13T22:02:50.946Z,78.67
2019-01-13T22:05:18.074Z,78.64
2019-01-13T22:07:45.161Z,78.51
2019-01-13T22:10:14.553Z,78.54
2019-01-13T22:12:41.652Z,78.53
2019-01-13T22:15:09.923Z,78.41
2019-01-13T22:17:37.035Z,78.47
2019-01-13T22:20:05.561Z,78.58
2019-01-13T22:22:32.656Z,78.43
2019-01-13T22:24:59.729Z,78.36
2019-01-13T22:27:26.829Z,78.54
2019-01-13T22:29:53.903Z,78.63
2019-01-13T22:32:20.982Z,78.50
2019-01-13T22:34:48.075Z,78.64
2019-01-13T22:37:15.130Z,78.60
2019-01-13T22:39:42.215Z,78.52
2019-01-13T22:42:09.246Z,78.38
2019-01-13T22:44:36.328Z,78.39
2019-01-13T22:47:03.663Z,78.43
2019-01-13T22:49:30.740Z,78.62
2019-01-13T22:51:57.770Z,78.92
2019-01-13T22:54:25.938Z,79.05
2019-01-13T22:56:53.028Z,78.93
2019-01-13T22:59:20.061Z,78.83
2019-01-13T23:01:47.411Z,78.86
2019-01-13T23:04:15.642Z,78.84
2019-01-13T23:06:42.813Z,78.89
2019-01-13T23:09:10.966Z,78.83
2019-01-13T23:11:38.025Z,78.39
2019-01-13T23:14:06.799Z,78.00
2019-01-13T23:16:34.076Z,77.86
2019-01-13T23:19:01.126Z,77.94
2019-01-13T23:21:28.196Z,77.77
2019-01-13T23:23:55.251Z,78.01
2019-01-13T23:26:22.297Z,78.04
2019-01-13T23:28:49.329Z,78.15
2019-01-13T23:31:16.386Z,77.97
2019-01-13T23:33:43.409Z,78.27
2019-01-13T23:36:10.474Z,78.31
2019-01-13T23:38:37.497Z,78.21
2019-01-13T23:41:04.563Z,78.30
2019-01-13T23:43:31.615Z,78.17
2019-01-13T23:45:58.651Z,77.93
2019-01-13T23:48:25.699Z,78.38
2019-01-13T23:50:52.731Z,78.20
2019-01-13T23:53:19.783Z,78.03
2019-01-13T23:55:46.831Z,77.89
2019-01-13T23:58:13.897Z,77.57
